sensor_id;sensor_type;location;lat;lon;timestamp;P1;durP1;ratioP1;P2;durP2;ratioP2
69087;SDS011;56190;43.562;5.036;2023-03-31T00:01:34;19.80;;;6.88;;
69087;SDS011;56190;43.562;5.036;2023-03-31T00:04:00;13.45;;;5.43;;
69087;SDS011;56190;43.562;5.036;2023-03-31T00:06:29;18.05;;;5.93;;
69087;SDS011;56190;43.562;5.036;2023-03-31T00:08:55;17.45;;;5.40;;
69087;SDS011;56190;43.562;5.036;2023-03-31T00:11:25;12.63;;;4.95;;
69087;SDS011;56190;43.562;5.036;2023-03-31T00:13:51;14.85;;;5.80;;
69087;SDS011;56190;43.562;5.036;2023-03-31T00:16:16;16.45;;;5.53;;
69087;SDS011;56190;43.562;5.036;2023-03-31T00:18:42;16.50;;;5.53;;
69087;SDS011;56190;43.562;5.036;2023-03-31T00:21:14;14.32;;;5.28;;
69087;SDS011;56190;43.562;5.036;2023-03-31T00:23:55;15.65;;;5.95;;
69087;SDS011;56190;43.562;5.036;2023-03-31T00:26:20;16.38;;;5.47;;
69087;SDS011;56190;43.562;5.036;2023-03-31T00:28:50;11.18;;;4.70;;
69087;SDS011;56190;43.562;5.036;2023-03-31T00:31:15;16.88;;;5.90;;
69087;SDS011;56190;43.562;5.036;2023-03-31T00:33:40;14.23;;;5.60;;
69087;SDS011;56190;43.562;5.036;2023-03-31T00:36:06;13.82;;;5.80;;
69087;SDS011;56190;43.562;5.036;2023-03-31T00:38:31;12.55;;;5.15;;
69087;SDS011;56190;43.562;5.036;2023-03-31T00:40:57;15.48;;;5.05;;
69087;SDS011;56190;43.562;5.036;2023-03-31T00:43:25;15.98;;;5.32;;
69087;SDS011;56190;43.562;5.036;2023-03-31T00:45:52;17.20;;;5.05;;
69087;SDS011;56190;43.562;5.036;2023-03-31T00:48:19;11.88;;;5.07;;
69087;SDS011;56190;43.562;5.036;2023-03-31T00:50:47;16.38;;;5.90;;
69087;SDS011;56190;43.562;5.036;2023-03-31T00:53:13;15.27;;;5.68;;
69087;SDS011;56190;43.562;5.036;2023-03-31T00:55:43;15.73;;;5.80;;
69087;SDS011;56190;43.562;5.036;2023-03-31T00:58:09;17.27;;;5.47;;
69087;SDS011;56190;43.562;5.036;2023-03-31T01:00:38;14.30;;;5.78;;
69087;SDS011;56190;43.562;5.036;2023-03-31T01:03:05;13.32;;;5.53;;
69087;SDS011;56190;43.562;5.036;2023-03-31T01:05:33;15.20;;;5.25;;
69087;SDS011;56190;43.562;5.036;2023-03-31T01:08:02;13.65;;;5.32;;
69087;SDS011;56190;43.562;5.036;2023-03-31T01:10:29;13.98;;;5.30;;
69087;SDS011;56190;43.562;5.036;2023-03-31T01:12:57;14.70;;;5.75;;
69087;SDS011;56190;43.562;5.036;2023-03-31T01:15:22;18.38;;;5.80;;
69087;SDS011;56190;43.562;5.036;2023-03-31T01:17:48;12.73;;;5.28;;
69087;SDS011;56190;43.562;5.036;2023-03-31T01:20:23;15.95;;;5.88;;
69087;SDS011;56190;43.562;5.036;2023-03-31T01:23:01;13.32;;;6.00;;
69087;SDS011;56190;43.562;5.036;2023-03-31T01:38:48;16.48;;;5.97;;
69087;SDS011;56190;43.562;5.036;2023-03-31T01:43:45;14.98;;;5.50;;
69087;SDS011;56190;43.562;5.036;2023-03-31T01:58:37;9.88;;;4.75;;
69087;SDS011;56190;43.562;5.036;2023-03-31T02:03:49;10.43;;;4.95;;
69087;SDS011;56190;43.562;5.036;2023-03-31T02:06:18;9.02;;;4.07;;
69087;SDS011;56190;43.562;5.036;2023-03-31T02:08:47;15.73;;;5.43;;
69087;SDS011;56190;43.562;5.036;2023-03-31T02:11:13;14.77;;;4.80;;
69087;SDS011;56190;43.562;5.036;2023-03-31T02:13:39;12.95;;;4.32;;
69087;SDS011;56190;43.562;5.036;2023-03-31T02:16:08;11.77;;;4.65;;
69087;SDS011;56190;43.562;5.036;2023-03-31T02:18:35;11.93;;;4.53;;
69087;SDS011;56190;43.562;5.036;2023-03-31T02:21:02;9.63;;;4.13;;
69087;SDS011;56190;43.562;5.036;2023-03-31T02:23:27;11.57;;;4.43;;
69087;SDS011;56190;43.562;5.036;2023-03-31T02:26:18;15.20;;;4.45;;
69087;SDS011;56190;43.562;5.036;2023-03-31T02:28:42;11.40;;;4.05;;
69087;SDS011;56190;43.562;5.036;2023-03-31T02:31:11;13.13;;;4.20;;
69087;SDS011;56190;43.562;5.036;2023-03-31T02:33:38;13.48;;;4.30;;
69087;SDS011;56190;43.562;5.036;2023-03-31T02:36:03;14.02;;;4.95;;
69087;SDS011;56190;43.562;5.036;2023-03-31T02:38:31;13.95;;;3.88;;
69087;SDS011;56190;43.562;5.036;2023-03-31T02:41:00;12.10;;;4.40;;
69087;SDS011;56190;43.562;5.036;2023-03-31T02:43:25;13.00;;;3.67;;
69087;SDS011;56190;43.562;5.036;2023-03-31T02:45:50;13.95;;;3.92;;
69087;SDS011;56190;43.562;5.036;2023-03-31T02:48:20;11.43;;;4.10;;
69087;SDS011;56190;43.562;5.036;2023-03-31T03:13:50;13.88;;;4.18;;
69087;SDS011;56190;43.562;5.036;2023-03-31T03:16:26;12.07;;;4.30;;
69087;SDS011;56190;43.562;5.036;2023-03-31T03:18:56;16.52;;;4.57;;
69087;SDS011;56190;43.562;5.036;2023-03-31T03:21:22;16.33;;;4.32;;
69087;SDS011;56190;43.562;5.036;2023-03-31T03:23:47;14.43;;;5.00;;
69087;SDS011;56190;43.562;5.036;2023-03-31T03:26:12;10.18;;;4.47;;
69087;SDS011;56190;43.562;5.036;2023-03-31T03:28:37;15.68;;;5.18;;
69087;SDS011;56190;43.562;5.036;2023-03-31T03:31:02;10.82;;;4.55;;
69087;SDS011;56190;43.562;5.036;2023-03-31T03:33:28;13.55;;;5.25;;
69087;SDS011;56190;43.562;5.036;2023-03-31T03:35:53;12.68;;;5.00;;
69087;SDS011;56190;43.562;5.036;2023-03-31T03:38:18;10.93;;;4.95;;
69087;SDS011;56190;43.562;5.036;2023-03-31T03:40:44;9.93;;;4.47;;
69087;SDS011;56190;43.562;5.036;2023-03-31T03:43:10;11.75;;;4.47;;
69087;SDS011;56190;43.562;5.036;2023-03-31T03:45:35;11.50;;;4.47;;
69087;SDS011;56190;43.562;5.036;2023-03-31T03:48:00;13.35;;;4.32;;
69087;SDS011;56190;43.562;5.036;2023-03-31T03:50:26;16.63;;;5.05;;
69087;SDS011;56190;43.562;5.036;2023-03-31T03:52:51;10.65;;;3.85;;
69087;SDS011;56190;43.562;5.036;2023-03-31T03:55:16;16.58;;;5.30;;
69087;SDS011;56190;43.562;5.036;2023-03-31T03:57:42;8.82;;;3.90;;
69087;SDS011;56190;43.562;5.036;2023-03-31T04:00:07;14.73;;;4.80;;
69087;SDS011;56190;43.562;5.036;2023-03-31T04:02:36;12.13;;;4.82;;
69087;SDS011;56190;43.562;5.036;2023-03-31T04:05:01;15.43;;;4.57;;
69087;SDS011;56190;43.562;5.036;2023-03-31T04:07:26;9.25;;;3.85;;
69087;SDS011;56190;43.562;5.036;2023-03-31T04:09:52;9.93;;;4.25;;
69087;SDS011;56190;43.562;5.036;2023-03-31T04:12:17;10.68;;;3.72;;
69087;SDS011;56190;43.562;5.036;2023-03-31T04:14:42;10.70;;;4.28;;
69087;SDS011;56190;43.562;5.036;2023-03-31T04:17:07;10.35;;;3.83;;
69087;SDS011;56190;43.562;5.036;2023-03-31T04:19:34;9.43;;;3.53;;
69087;SDS011;56190;43.562;5.036;2023-03-31T04:21:59;8.80;;;3.83;;
69087;SDS011;56190;43.562;5.036;2023-03-31T04:24:28;8.02;;;4.28;;
69087;SDS011;56190;43.562;5.036;2023-03-31T04:26:57;9.05;;;3.55;;
69087;SDS011;56190;43.562;5.036;2023-03-31T04:29:22;7.97;;;3.95;;
69087;SDS011;56190;43.562;5.036;2023-03-31T04:31:51;11.15;;;3.72;;
69087;SDS011;56190;43.562;5.036;2023-03-31T04:34:17;8.77;;;3.60;;
69087;SDS011;56190;43.562;5.036;2023-03-31T04:36:44;11.00;;;3.88;;
69087;SDS011;56190;43.562;5.036;2023-03-31T04:39:13;8.75;;;3.40;;
69087;SDS011;56190;43.562;5.036;2023-03-31T04:41:38;10.57;;;3.83;;
69087;SDS011;56190;43.562;5.036;2023-03-31T04:44:04;7.53;;;3.72;;
69087;SDS011;56190;43.562;5.036;2023-03-31T04:46:30;9.35;;;3.83;;
69087;SDS011;56190;43.562;5.036;2023-03-31T04:48:55;9.85;;;3.85;;
69087;SDS011;56190;43.562;5.036;2023-03-31T04:51:22;11.25;;;4.00;;
69087;SDS011;56190;43.562;5.036;2023-03-31T04:53:48;12.63;;;4.07;;
69087;SDS011;56190;43.562;5.036;2023-03-31T04:56:13;12.18;;;4.30;;
69087;SDS011;56190;43.562;5.036;2023-03-31T04:58:38;7.20;;;3.75;;
69087;SDS011;56190;43.562;5.036;2023-03-31T05:01:04;11.32;;;4.03;;
69087;SDS011;56190;43.562;5.036;2023-03-31T05:03:32;13.13;;;4.72;;
69087;SDS011;56190;43.562;5.036;2023-03-31T05:05:57;11.65;;;4.50;;
69087;SDS011;56190;43.562;5.036;2023-03-31T05:08:22;10.32;;;4.13;;
69087;SDS011;56190;43.562;5.036;2023-03-31T05:10:48;9.15;;;3.90;;
69087;SDS011;56190;43.562;5.036;2023-03-31T05:13:13;12.38;;;4.65;;
69087;SDS011;56190;43.562;5.036;2023-03-31T05:15:38;10.73;;;3.85;;
69087;SDS011;56190;43.562;5.036;2023-03-31T05:18:04;11.45;;;4.40;;
69087;SDS011;56190;43.562;5.036;2023-03-31T05:20:29;11.52;;;4.40;;
69087;SDS011;56190;43.562;5.036;2023-03-31T05:22:54;10.48;;;3.85;;
69087;SDS011;56190;43.562;5.036;2023-03-31T05:25:20;9.43;;;4.18;;
69087;SDS011;56190;43.562;5.036;2023-03-31T05:27:46;16.73;;;3.88;;
69087;SDS011;56190;43.562;5.036;2023-03-31T05:30:12;12.68;;;4.20;;
69087;SDS011;56190;43.562;5.036;2023-03-31T05:32:37;12.70;;;4.68;;
69087;SDS011;56190;43.562;5.036;2023-03-31T05:35:02;12.63;;;3.75;;
69087;SDS011;56190;43.562;5.036;2023-03-31T05:37:27;12.60;;;4.60;;
69087;SDS011;56190;43.562;5.036;2023-03-31T05:39:53;11.95;;;3.90;;
69087;SDS011;56190;43.562;5.036;2023-03-31T05:42:18;9.73;;;4.07;;
69087;SDS011;56190;43.562;5.036;2023-03-31T05:44:44;9.38;;;3.55;;
69087;SDS011;56190;43.562;5.036;2023-03-31T05:47:09;16.30;;;4.30;;
69087;SDS011;56190;43.562;5.036;2023-03-31T05:49:34;12.73;;;3.85;;
69087;SDS011;56190;43.562;5.036;2023-03-31T05:52:00;11.60;;;3.58;;
69087;SDS011;56190;43.562;5.036;2023-03-31T05:54:25;10.73;;;3.90;;
69087;SDS011;56190;43.562;5.036;2023-03-31T05:56:51;7.80;;;3.63;;
69087;SDS011;56190;43.562;5.036;2023-03-31T05:59:16;10.45;;;4.20;;
69087;SDS011;56190;43.562;5.036;2023-03-31T06:01:42;9.70;;;3.72;;
69087;SDS011;56190;43.562;5.036;2023-03-31T06:04:07;16.92;;;4.13;;
69087;SDS011;56190;43.562;5.036;2023-03-31T06:06:32;11.30;;;3.90;;
69087;SDS011;56190;43.562;5.036;2023-03-31T06:08:59;10.15;;;3.70;;
69087;SDS011;56190;43.562;5.036;2023-03-31T06:11:24;12.85;;;4.15;;
69087;SDS011;56190;43.562;5.036;2023-03-31T06:13:49;11.25;;;3.53;;
69087;SDS011;56190;43.562;5.036;2023-03-31T06:16:15;11.05;;;3.80;;
69087;SDS011;56190;43.562;5.036;2023-03-31T06:18:41;8.15;;;3.33;;
69087;SDS011;56190;43.562;5.036;2023-03-31T06:21:07;9.90;;;3.67;;
69087;SDS011;56190;43.562;5.036;2023-03-31T06:23:34;10.32;;;3.58;;
69087;SDS011;56190;43.562;5.036;2023-03-31T06:26:03;11.52;;;3.33;;
69087;SDS011;56190;43.562;5.036;2023-03-31T06:28:28;12.88;;;3.55;;
69087;SDS011;56190;43.562;5.036;2023-03-31T06:31:01;9.95;;;3.58;;
69087;SDS011;56190;43.562;5.036;2023-03-31T06:33:26;12.52;;;3.78;;
69087;SDS011;56190;43.562;5.036;2023-03-31T06:35:53;10.27;;;3.72;;
69087;SDS011;56190;43.562;5.036;2023-03-31T06:38:19;9.15;;;3.30;;
69087;SDS011;56190;43.562;5.036;2023-03-31T06:40:44;11.52;;;3.55;;
69087;SDS011;56190;43.562;5.036;2023-03-31T06:43:10;14.73;;;4.32;;
69087;SDS011;56190;43.562;5.036;2023-03-31T06:45:36;10.77;;;4.05;;
69087;SDS011;56190;43.562;5.036;2023-03-31T06:48:01;10.55;;;3.58;;
69087;SDS011;56190;43.562;5.036;2023-03-31T06:50:26;13.45;;;3.90;;
69087;SDS011;56190;43.562;5.036;2023-03-31T06:52:51;8.88;;;3.80;;
69087;SDS011;56190;43.562;5.036;2023-03-31T06:55:19;10.88;;;3.90;;
69087;SDS011;56190;43.562;5.036;2023-03-31T06:57:44;7.72;;;3.75;;
69087;SDS011;56190;43.562;5.036;2023-03-31T07:00:09;12.32;;;4.13;;
69087;SDS011;56190;43.562;5.036;2023-03-31T07:02:35;10.93;;;3.70;;
69087;SDS011;56190;43.562;5.036;2023-03-31T07:05:01;9.45;;;3.42;;
69087;SDS011;56190;43.562;5.036;2023-03-31T07:07:26;10.10;;;3.97;;
69087;SDS011;56190;43.562;5.036;2023-03-31T07:09:51;7.50;;;3.53;;
69087;SDS011;56190;43.562;5.036;2023-03-31T07:12:16;9.13;;;4.28;;
69087;SDS011;56190;43.562;5.036;2023-03-31T07:14:42;11.15;;;4.05;;
69087;SDS011;56190;43.562;5.036;2023-03-31T07:17:07;10.45;;;4.32;;
69087;SDS011;56190;43.562;5.036;2023-03-31T07:19:32;12.02;;;4.05;;
69087;SDS011;56190;43.562;5.036;2023-03-31T07:21:57;11.13;;;4.60;;
69087;SDS011;56190;43.562;5.036;2023-03-31T07:24:23;12.57;;;4.10;;
69087;SDS011;56190;43.562;5.036;2023-03-31T07:26:48;10.77;;;3.83;;
69087;SDS011;56190;43.562;5.036;2023-03-31T07:29:13;11.73;;;3.72;;
69087;SDS011;56190;43.562;5.036;2023-03-31T07:31:38;13.73;;;4.20;;
69087;SDS011;56190;43.562;5.036;2023-03-31T07:34:04;10.00;;;3.72;;
69087;SDS011;56190;43.562;5.036;2023-03-31T07:36:29;6.60;;;3.63;;
69087;SDS011;56190;43.562;5.036;2023-03-31T07:38:55;9.50;;;4.00;;
69087;SDS011;56190;43.562;5.036;2023-03-31T07:41:21;12.98;;;4.95;;
69087;SDS011;56190;43.562;5.036;2023-03-31T07:43:47;10.45;;;4.07;;
69087;SDS011;56190;43.562;5.036;2023-03-31T07:46:13;8.27;;;4.22;;
69087;SDS011;56190;43.562;5.036;2023-03-31T07:48:38;8.73;;;3.42;;
69087;SDS011;56190;43.562;5.036;2023-03-31T07:51:04;13.15;;;4.32;;
69087;SDS011;56190;43.562;5.036;2023-03-31T07:53:29;10.77;;;4.07;;
69087;SDS011;56190;43.562;5.036;2023-03-31T07:55:55;10.45;;;4.32;;
69087;SDS011;56190;43.562;5.036;2023-03-31T07:58:20;9.27;;;3.45;;
69087;SDS011;56190;43.562;5.036;2023-03-31T08:00:45;9.27;;;3.63;;
69087;SDS011;56190;43.562;5.036;2023-03-31T08:03:10;12.70;;;3.83;;
69087;SDS011;56190;43.562;5.036;2023-03-31T08:05:36;9.63;;;3.65;;
69087;SDS011;56190;43.562;5.036;2023-03-31T08:08:01;11.60;;;4.20;;
69087;SDS011;56190;43.562;5.036;2023-03-31T08:10:26;7.90;;;3.67;;
69087;SDS011;56190;43.562;5.036;2023-03-31T08:12:52;9.30;;;4.40;;
69087;SDS011;56190;43.562;5.036;2023-03-31T08:15:17;12.70;;;5.13;;
69087;SDS011;56190;43.562;5.036;2023-03-31T08:17:42;10.43;;;4.90;;
69087;SDS011;56190;43.562;5.036;2023-03-31T08:20:08;16.33;;;4.25;;
69087;SDS011;56190;43.562;5.036;2023-03-31T08:22:34;13.82;;;4.13;;
69087;SDS011;56190;43.562;5.036;2023-03-31T08:25:00;8.68;;;3.60;;
69087;SDS011;56190;43.562;5.036;2023-03-31T08:27:25;11.60;;;3.83;;
69087;SDS011;56190;43.562;5.036;2023-03-31T08:29:50;13.40;;;3.95;;
69087;SDS011;56190;43.562;5.036;2023-03-31T08:32:15;14.75;;;4.20;;
69087;SDS011;56190;43.562;5.036;2023-03-31T08:34:41;15.63;;;4.22;;
69087;SDS011;56190;43.562;5.036;2023-03-31T08:37:10;13.57;;;4.22;;
69087;SDS011;56190;43.562;5.036;2023-03-31T08:39:35;14.05;;;4.35;;
69087;SDS011;56190;43.562;5.036;2023-03-31T08:42:12;9.55;;;4.05;;
69087;SDS011;56190;43.562;5.036;2023-03-31T08:44:41;11.32;;;4.22;;
69087;SDS011;56190;43.562;5.036;2023-03-31T08:47:12;9.85;;;4.05;;
69087;SDS011;56190;43.562;5.036;2023-03-31T08:49:40;11.15;;;4.57;;
69087;SDS011;56190;43.562;5.036;2023-03-31T08:52:06;10.68;;;4.03;;
69087;SDS011;56190;43.562;5.036;2023-03-31T08:54:38;11.93;;;4.07;;
69087;SDS011;56190;43.562;5.036;2023-03-31T08:57:05;14.07;;;4.10;;
69087;SDS011;56190;43.562;5.036;2023-03-31T08:59:36;14.50;;;5.15;;
69087;SDS011;56190;43.562;5.036;2023-03-31T09:04:54;9.60;;;3.75;;
69087;SDS011;56190;43.562;5.036;2023-03-31T09:07:34;7.63;;;3.03;;
69087;SDS011;56190;43.562;5.036;2023-03-31T09:12:50;10.05;;;3.38;;
69087;SDS011;56190;43.562;5.036;2023-03-31T09:15:23;9.15;;;3.40;;
69087;SDS011;56190;43.562;5.036;2023-03-31T09:17:50;10.80;;;3.03;;
69087;SDS011;56190;43.562;5.036;2023-03-31T09:20:17;12.25;;;3.95;;
69087;SDS011;56190;43.562;5.036;2023-03-31T09:22:44;11.65;;;3.70;;
69087;SDS011;56190;43.562;5.036;2023-03-31T09:27:36;13.13;;;3.63;;
69087;SDS011;56190;43.562;5.036;2023-03-31T09:32:34;13.38;;;3.75;;
69087;SDS011;56190;43.562;5.036;2023-03-31T09:35:12;10.88;;;3.33;;
69087;SDS011;56190;43.562;5.036;2023-03-31T09:37:38;13.85;;;3.75;;
69087;SDS011;56190;43.562;5.036;2023-03-31T09:40:03;16.15;;;4.50;;
69087;SDS011;56190;43.562;5.036;2023-03-31T09:42:34;11.95;;;4.70;;
69087;SDS011;56190;43.562;5.036;2023-03-31T09:45:00;11.38;;;4.07;;
69087;SDS011;56190;43.562;5.036;2023-03-31T09:47:39;8.85;;;3.60;;
69087;SDS011;56190;43.562;5.036;2023-03-31T09:50:06;10.57;;;4.10;;
69087;SDS011;56190;43.562;5.036;2023-03-31T09:52:34;11.05;;;4.90;;
69087;SDS011;56190;43.562;5.036;2023-03-31T09:55:01;12.32;;;6.03;;
69087;SDS011;56190;43.562;5.036;2023-03-31T09:57:32;11.40;;;5.78;;
69087;SDS011;56190;43.562;5.036;2023-03-31T10:00:02;12.00;;;5.38;;
69087;SDS011;56190;43.562;5.036;2023-03-31T10:02:34;13.25;;;5.55;;
69087;SDS011;56190;43.562;5.036;2023-03-31T10:05:02;14.25;;;5.60;;
69087;SDS011;56190;43.562;5.036;2023-03-31T10:07:27;12.40;;;4.43;;
69087;SDS011;56190;43.562;5.036;2023-03-31T10:09:53;12.02;;;4.10;;
69087;SDS011;56190;43.562;5.036;2023-03-31T10:12:20;12.65;;;4.13;;
69087;SDS011;56190;43.562;5.036;2023-03-31T10:14:52;11.23;;;4.43;;
69087;SDS011;56190;43.562;5.036;2023-03-31T10:17:19;11.80;;;4.22;;
69087;SDS011;56190;43.562;5.036;2023-03-31T10:22:14;9.57;;;3.40;;
69087;SDS011;56190;43.562;5.036;2023-03-31T10:24:41;15.32;;;4.47;;
69087;SDS011;56190;43.562;5.036;2023-03-31T10:27:17;12.50;;;4.25;;
69087;SDS011;56190;43.562;5.036;2023-03-31T10:29:43;12.40;;;4.78;;
69087;SDS011;56190;43.562;5.036;2023-03-31T10:32:10;15.07;;;4.60;;
69087;SDS011;56190;43.562;5.036;2023-03-31T10:34:38;12.43;;;4.78;;
69087;SDS011;56190;43.562;5.036;2023-03-31T10:37:05;9.25;;;3.80;;
69087;SDS011;56190;43.562;5.036;2023-03-31T10:39:30;12.40;;;4.53;;
69087;SDS011;56190;43.562;5.036;2023-03-31T10:41:56;11.88;;;4.57;;
69087;SDS011;56190;43.562;5.036;2023-03-31T10:44:37;10.63;;;4.35;;
69087;SDS011;56190;43.562;5.036;2023-03-31T10:47:21;13.43;;;4.35;;
69087;SDS011;56190;43.562;5.036;2023-03-31T10:49:47;10.52;;;4.28;;
69087;SDS011;56190;43.562;5.036;2023-03-31T10:52:17;11.73;;;4.15;;
69087;SDS011;56190;43.562;5.036;2023-03-31T10:54:46;11.13;;;4.63;;
69087;SDS011;56190;43.562;5.036;2023-03-31T10:57:12;10.65;;;3.80;;
69087;SDS011;56190;43.562;5.036;2023-03-31T11:12:18;11.23;;;4.22;;
69087;SDS011;56190;43.562;5.036;2023-03-31T11:14:49;9.52;;;4.45;;
69087;SDS011;56190;43.562;5.036;2023-03-31T11:30:57;12.70;;;4.40;;
69087;SDS011;56190;43.562;5.036;2023-03-31T11:33:23;9.95;;;4.80;;
69087;SDS011;56190;43.562;5.036;2023-03-31T11:38:46;13.48;;;5.50;;
69087;SDS011;56190;43.562;5.036;2023-03-31T11:41:19;11.77;;;5.10;;
69087;SDS011;56190;43.562;5.036;2023-03-31T11:43:51;14.23;;;6.03;;
69087;SDS011;56190;43.562;5.036;2023-03-31T11:46:22;14.90;;;5.18;;
69087;SDS011;56190;43.562;5.036;2023-03-31T11:48:53;14.23;;;5.35;;
69087;SDS011;56190;43.562;5.036;2023-03-31T11:51:26;15.70;;;5.25;;
69087;SDS011;56190;43.562;5.036;2023-03-31T11:53:53;13.98;;;5.25;;
69087;SDS011;56190;43.562;5.036;2023-03-31T11:56:19;15.10;;;5.45;;
69087;SDS011;56190;43.562;5.036;2023-03-31T11:58:53;11.40;;;5.00;;
69087;SDS011;56190;43.562;5.036;2023-03-31T12:01:24;11.07;;;5.10;;
69087;SDS011;56190;43.562;5.036;2023-03-31T12:06:20;13.20;;;5.43;;
69087;SDS011;56190;43.562;5.036;2023-03-31T12:09:05;10.57;;;5.32;;
69087;SDS011;56190;43.562;5.036;2023-03-31T12:11:49;8.98;;;4.93;;
69087;SDS011;56190;43.562;5.036;2023-03-31T12:14:20;9.57;;;5.22;;
69087;SDS011;56190;43.562;5.036;2023-03-31T12:16:48;13.15;;;5.32;;
69087;SDS011;56190;43.562;5.036;2023-03-31T12:21:42;13.25;;;5.40;;
69087;SDS011;56190;43.562;5.036;2023-03-31T12:24:11;12.88;;;5.95;;
69087;SDS011;56190;43.562;5.036;2023-03-31T12:26:59;11.77;;;5.00;;
69087;SDS011;56190;43.562;5.036;2023-03-31T12:29:30;11.52;;;5.45;;
69087;SDS011;56190;43.562;5.036;2023-03-31T12:31:56;13.40;;;5.70;;
69087;SDS011;56190;43.562;5.036;2023-03-31T12:34:22;14.27;;;5.85;;
69087;SDS011;56190;43.562;5.036;2023-03-31T12:44:35;10.70;;;5.22;;
69087;SDS011;56190;43.562;5.036;2023-03-31T12:49:38;12.80;;;5.65;;
69087;SDS011;56190;43.562;5.036;2023-03-31T12:52:21;12.40;;;5.30;;
69087;SDS011;56190;43.562;5.036;2023-03-31T12:57:33;17.38;;;5.75;;
69087;SDS011;56190;43.562;5.036;2023-03-31T13:02:39;12.77;;;6.00;;
69087;SDS011;56190;43.562;5.036;2023-03-31T13:07:48;13.30;;;5.47;;
69087;SDS011;56190;43.562;5.036;2023-03-31T13:12:52;13.10;;;5.95;;
69087;SDS011;56190;43.562;5.036;2023-03-31T13:15:20;12.50;;;5.65;;
69087;SDS011;56190;43.562;5.036;2023-03-31T13:18:14;15.13;;;6.22;;
69087;SDS011;56190;43.562;5.036;2023-03-31T13:20:36;15.65;;;5.82;;
69087;SDS011;56190;43.562;5.036;2023-03-31T13:25:49;11.80;;;5.40;;
69087;SDS011;56190;43.562;5.036;2023-03-31T13:35:49;18.17;;;5.22;;
69087;SDS011;56190;43.562;5.036;2023-03-31T13:41:15;11.85;;;5.25;;
69087;SDS011;56190;43.562;5.036;2023-03-31T13:44:00;12.10;;;5.25;;
69087;SDS011;56190;43.562;5.036;2023-03-31T13:46:48;12.68;;;5.30;;
69087;SDS011;56190;43.562;5.036;2023-03-31T14:06:58;11.93;;;5.10;;
69087;SDS011;56190;43.562;5.036;2023-03-31T14:11:50;11.67;;;4.53;;
69087;SDS011;56190;43.562;5.036;2023-03-31T14:14:16;10.63;;;5.70;;
69087;SDS011;56190;43.562;5.036;2023-03-31T14:16:58;13.50;;;5.53;;
69087;SDS011;56190;43.562;5.036;2023-03-31T14:21:54;10.70;;;5.75;;
69087;SDS011;56190;43.562;5.036;2023-03-31T14:24:40;12.37;;;6.33;;
69087;SDS011;56190;43.562;5.036;2023-03-31T14:27:26;17.25;;;8.32;;
69087;SDS011;56190;43.562;5.036;2023-03-31T14:29:58;15.70;;;8.38;;
69087;SDS011;56190;43.562;5.036;2023-03-31T14:34:56;15.20;;;8.75;;
69087;SDS011;56190;43.562;5.036;2023-03-31T14:37:27;15.55;;;9.90;;
69087;SDS011;56190;43.562;5.036;2023-03-31T14:39:53;13.77;;;9.48;;
69087;SDS011;56190;43.562;5.036;2023-03-31T14:42:25;17.77;;;9.98;;
69087;SDS011;56190;43.562;5.036;2023-03-31T14:44:55;16.73;;;10.95;;
69087;SDS011;56190;43.562;5.036;2023-03-31T14:47:21;20.85;;;11.55;;
69087;SDS011;56190;43.562;5.036;2023-03-31T14:49:46;20.38;;;13.00;;
69087;SDS011;56190;43.562;5.036;2023-03-31T14:52:16;23.38;;;13.60;;
69087;SDS011;56190;43.562;5.036;2023-03-31T14:54:42;20.85;;;13.27;;
69087;SDS011;56190;43.562;5.036;2023-03-31T14:57:08;20.52;;;13.02;;
69087;SDS011;56190;43.562;5.036;2023-03-31T14:59:34;22.85;;;13.32;;
69087;SDS011;56190;43.562;5.036;2023-03-31T15:02:00;24.15;;;13.43;;
69087;SDS011;56190;43.562;5.036;2023-03-31T15:04:27;18.38;;;12.32;;
69087;SDS011;56190;43.562;5.036;2023-03-31T15:06:53;21.30;;;13.52;;
69087;SDS011;56190;43.562;5.036;2023-03-31T15:09:22;19.15;;;12.50;;
69087;SDS011;56190;43.562;5.036;2023-03-31T15:11:52;21.30;;;14.18;;
69087;SDS011;56190;43.562;5.036;2023-03-31T15:14:18;23.17;;;14.25;;
69087;SDS011;56190;43.562;5.036;2023-03-31T15:16:44;20.08;;;13.23;;
69087;SDS011;56190;43.562;5.036;2023-03-31T15:19:22;23.83;;;13.82;;
69087;SDS011;56190;43.562;5.036;2023-03-31T15:21:55;25.20;;;14.05;;
69087;SDS011;56190;43.562;5.036;2023-03-31T15:24:21;22.33;;;14.43;;
69087;SDS011;56190;43.562;5.036;2023-03-31T15:27:06;17.42;;;12.73;;
69087;SDS011;56190;43.562;5.036;2023-03-31T15:29:40;22.05;;;13.63;;
69087;SDS011;56190;43.562;5.036;2023-03-31T15:32:10;19.55;;;12.32;;
69087;SDS011;56190;43.562;5.036;2023-03-31T15:34:36;19.42;;;13.25;;
69087;SDS011;56190;43.562;5.036;2023-03-31T15:37:01;19.77;;;12.35;;
69087;SDS011;56190;43.562;5.036;2023-03-31T15:39:28;18.95;;;12.68;;
69087;SDS011;56190;43.562;5.036;2023-03-31T15:41:55;19.90;;;12.93;;
69087;SDS011;56190;43.562;5.036;2023-03-31T15:47:35;21.83;;;13.13;;
69087;SDS011;56190;43.562;5.036;2023-03-31T15:49:53;19.08;;;11.60;;
69087;SDS011;56190;43.562;5.036;2023-03-31T15:53:18;19.45;;;11.73;;
69087;SDS011;56190;43.562;5.036;2023-03-31T15:57:51;20.70;;;11.30;;
69087;SDS011;56190;43.562;5.036;2023-03-31T16:03:02;21.48;;;10.15;;
69087;SDS011;56190;43.562;5.036;2023-03-31T16:11:01;23.38;;;9.13;;
69087;SDS011;56190;43.562;5.036;2023-03-31T16:13:27;23.70;;;8.98;;
69087;SDS011;56190;43.562;5.036;2023-03-31T16:15:53;15.93;;;9.05;;
69087;SDS011;56190;43.562;5.036;2023-03-31T16:18:40;20.50;;;8.88;;
69087;SDS011;56190;43.562;5.036;2023-03-31T16:21:05;20.40;;;8.93;;
69087;SDS011;56190;43.562;5.036;2023-03-31T16:23:31;17.02;;;8.48;;
69087;SDS011;56190;43.562;5.036;2023-03-31T16:25:58;15.80;;;8.23;;
69087;SDS011;56190;43.562;5.036;2023-03-31T16:28:25;16.00;;;7.82;;
69087;SDS011;56190;43.562;5.036;2023-03-31T16:30:51;16.20;;;7.82;;
69087;SDS011;56190;43.562;5.036;2023-03-31T16:33:17;12.52;;;7.85;;
69087;SDS011;56190;43.562;5.036;2023-03-31T16:35:46;15.55;;;7.65;;
69087;SDS011;56190;43.562;5.036;2023-03-31T16:38:17;22.77;;;8.32;;
69087;SDS011;56190;43.562;5.036;2023-03-31T16:40:43;15.77;;;7.75;;
69087;SDS011;56190;43.562;5.036;2023-03-31T16:43:16;15.63;;;8.20;;
69087;SDS011;56190;43.562;5.036;2023-03-31T16:45:42;15.65;;;7.72;;
69087;SDS011;56190;43.562;5.036;2023-03-31T16:48:08;13.52;;;6.70;;
69087;SDS011;56190;43.562;5.036;2023-03-31T16:50:33;14.50;;;5.75;;
69087;SDS011;56190;43.562;5.036;2023-03-31T16:52:59;15.90;;;5.10;;
69087;SDS011;56190;43.562;5.036;2023-03-31T16:55:25;18.23;;;4.80;;
69087;SDS011;56190;43.562;5.036;2023-03-31T16:57:50;16.17;;;4.55;;
69087;SDS011;56190;43.562;5.036;2023-03-31T17:00:16;14.50;;;4.72;;
69087;SDS011;56190;43.562;5.036;2023-03-31T17:02:42;11.70;;;4.50;;
69087;SDS011;56190;43.562;5.036;2023-03-31T17:05:07;13.73;;;4.35;;
69087;SDS011;56190;43.562;5.036;2023-03-31T17:07:33;12.60;;;4.50;;
69087;SDS011;56190;43.562;5.036;2023-03-31T17:09:58;14.98;;;4.40;;
69087;SDS011;56190;43.562;5.036;2023-03-31T17:12:23;9.55;;;3.78;;
69087;SDS011;56190;43.562;5.036;2023-03-31T17:14:49;17.20;;;5.03;;
69087;SDS011;56190;43.562;5.036;2023-03-31T17:17:14;19.48;;;4.25;;
69087;SDS011;56190;43.562;5.036;2023-03-31T17:19:39;18.50;;;4.60;;
69087;SDS011;56190;43.562;5.036;2023-03-31T17:22:05;15.57;;;5.10;;
69087;SDS011;56190;43.562;5.036;2023-03-31T17:24:30;9.50;;;3.65;;
69087;SDS011;56190;43.562;5.036;2023-03-31T17:26:55;26.25;;;3.72;;
69087;SDS011;56190;43.562;5.036;2023-03-31T17:29:21;11.80;;;2.72;;
69087;SDS011;56190;43.562;5.036;2023-03-31T17:31:46;10.48;;;2.65;;
69087;SDS011;56190;43.562;5.036;2023-03-31T17:34:12;6.63;;;2.08;;